sensor_id;sensor_type;location;lat;lon;timestamp;pressure;altitude;pressure_sealevel;temperature;humidity
32109;BME280;18624;50.042;8.436;2023-06-22T00:00:10;100475.88;;;23.61;77.52
32109;BME280;18624;50.042;8.436;2023-06-22T00:02:38;100434.34;;;23.30;77.27
32109;BME280;18624;50.042;8.436;2023-06-22T00:05:05;100493.91;;;23.71;76.72
32109;BME280;18624;50.042;8.436;2023-06-22T00:07:32;100506.63;;;23.72;77.35
32109;BME280;18624;50.042;8.436;2023-06-22T00:09:58;100510.44;;;23.75;76.97
32109;BME280;18624;50.042;8.436;2023-06-22T00:12:25;100528.47;;;23.80;77.26
32109;BME280;18624;50.042;8.436;2023-06-22T00:14:51;100507.19;;;23.65;76.33
32109;BME280;18624;50.042;8.436;2023-06-22T00:17:18;100486.34;;;23.55;77.17
32109;BME280;18624;50.042;8.436;2023-06-22T00:19:46;100490.97;;;23.47;76.92
32109;BME280;18624;50.042;8.436;2023-06-22T00:22:13;100533.34;;;23.73;76.97
32109;BME280;18624;50.042;8.436;2023-06-22T00:24:39;100568.91;;;23.84;77.38
32109;BME280;18624;50.042;8.436;2023-06-22T00:27:06;100549.06;;;23.77;77.23
32109;BME280;18624;50.042;8.436;2023-06-22T00:29:32;100545.75;;;23.84;77.06
32109;BME280;18624;50.042;8.436;2023-06-22T00:31:59;100540.94;;;23.79;77.29
32109;BME280;18624;50.042;8.436;2023-06-22T00:34:26;100499.34;;;23.47;77.38
32109;BME280;18624;50.042;8.436;2023-06-22T00:36:52;100522.16;;;23.62;77.36
32109;BME280;18624;50.042;8.436;2023-06-22T00:39:19;100554.66;;;23.82;78.10
32109;BME280;18624;50.042;8.436;2023-06-22T00:41:45;100582.06;;;24.00;77.78
32109;BME280;18624;50.042;8.436;2023-06-22T00:44:11;100558.97;;;23.83;78.21
32109;BME280;18624;50.042;8.436;2023-06-22T00:46:38;100544.00;;;23.75;78.24
32109;BME280;18624;50.042;8.436;2023-06-22T00:49:05;100519.63;;;23.70;78.15
32109;BME280;18624;50.042;8.436;2023-06-22T00:51:31;100528.47;;;23.80;77.87
32109;BME280;18624;50.042;8.436;2023-06-22T00:53:58;100579.44;;;24.08;77.44
32109;BME280;18624;50.042;8.436;2023-06-22T00:56:25;100601.88;;;24.03;78.34
32109;BME280;18624;50.042;8.436;2023-06-22T00:58:53;100574.03;;;23.74;80.03
32109;BME280;18624;50.042;8.436;2023-06-22T01:01:20;100625.81;;;23.98;83.56
32109;BME280;18624;50.042;8.436;2023-06-22T01:03:50;100659.91;;;24.02;86.75
32109;BME280;18624;50.042;8.436;2023-06-22T01:06:25;100696.31;;;24.02;91.26
32109;BME280;18624;50.042;8.436;2023-06-22T01:09:12;100699.63;;;23.95;94.80
32109;BME280;18624;50.042;8.436;2023-06-22T01:11:45;100662.09;;;23.51;97.35
32109;BME280;18624;50.042;8.436;2023-06-22T01:14:21;100697.91;;;23.81;99.53
32109;BME280;18624;50.042;8.436;2023-06-22T01:16:51;100633.84;;;23.49;100.00
32109;BME280;18624;50.042;8.436;2023-06-22T01:21:49;100498.41;;;23.33;100.00
32109;BME280;18624;50.042;8.436;2023-06-22T01:24:23;100482.97;;;23.15;100.00
32109;BME280;18624;50.042;8.436;2023-06-22T01:29:34;100481.72;;;22.99;100.00
32109;BME280;18624;50.042;8.436;2023-06-22T01:32:04;100488.56;;;23.04;100.00
32109;BME280;18624;50.042;8.436;2023-06-22T01:34:35;100439.34;;;22.79;100.00
32109;BME280;18624;50.042;8.436;2023-06-22T01:37:03;100411.47;;;22.56;100.00
32109;BME280;18624;50.042;8.436;2023-06-22T01:39:30;100457.88;;;22.82;100.00
32109;BME280;18624;50.042;8.436;2023-06-22T01:41:58;100494.69;;;22.86;100.00
32109;BME280;18624;50.042;8.436;2023-06-22T01:44:26;100483.06;;;22.54;100.00
32109;BME280;18624;50.042;8.436;2023-06-22T01:46:53;100510.50;;;22.61;100.00
32109;BME280;18624;50.042;8.436;2023-06-22T01:49:20;100542.72;;;22.79;100.00
32109;BME280;18624;50.042;8.436;2023-06-22T01:51:47;100516.06;;;22.72;100.00
32109;BME280;18624;50.042;8.436;2023-06-22T01:54:13;100524.16;;;22.81;100.00
32109;BME280;18624;50.042;8.436;2023-06-22T01:56:40;100504.09;;;22.83;100.00
32109;BME280;18624;50.042;8.436;2023-06-22T01:59:31;100533.06;;;23.02;100.00
32109;BME280;18624;50.042;8.436;2023-06-22T02:02:06;100507.66;;;22.72;100.00
32109;BME280;18624;50.042;8.436;2023-06-22T02:04:37;100478.25;;;22.48;100.00
32109;BME280;18624;50.042;8.436;2023-06-22T02:07:12;100521.63;;;22.72;100.00
32109;BME280;18624;50.042;8.436;2023-06-22T02:09:43;100522.16;;;22.76;100.00
32109;BME280;18624;50.042;8.436;2023-06-22T02:12:12;100508.44;;;22.61;100.00
32109;BME280;18624;50.042;8.436;2023-06-22T02:14:40;100491.69;;;22.50;100.00
32109;BME280;18624;50.042;8.436;2023-06-22T02:17:09;100510.22;;;22.70;100.00
32109;BME280;18624;50.042;8.436;2023-06-22T02:19:36;100436.88;;;22.24;100.00
32109;BME280;18624;50.042;8.436;2023-06-22T02:22:04;100481.03;;;22.48;100.00
32109;BME280;18624;50.042;8.436;2023-06-22T02:24:30;100450.56;;;22.28;100.00
32109;BME280;18624;50.042;8.436;2023-06-22T02:26:59;100460.97;;;22.33;100.00
32109;BME280;18624;50.042;8.436;2023-06-22T02:29:26;100475.44;;;22.32;100.00
32109;BME280;18624;50.042;8.436;2023-06-22T02:31:54;100530.03;;;22.66;100.00
32109;BME280;18624;50.042;8.436;2023-06-22T02:34:21;100505.16;;;22.52;100.00
32109;BME280;18624;50.042;8.436;2023-06-22T02:36:50;100513.78;;;22.59;100.00
32109;BME280;18624;50.042;8.436;2023-06-22T02:39:22;100496.78;;;22.40;100.00
32109;BME280;18624;50.042;8.436;2023-06-22T02:41:50;100547.06;;;22.74;100.00
32109;BME280;18624;50.042;8.436;2023-06-22T02:44:17;100542.22;;;22.74;100.00
32109;BME280;18624;50.042;8.436;2023-06-22T02:46:47;100484.81;;;22.51;100.00
32109;BME280;18624;50.042;8.436;2023-06-22T02:49:15;100504.09;;;22.77;100.00
32109;BME280;18624;50.042;8.436;2023-06-22T02:51:46;100475.94;;;22.58;100.00
32109;BME280;18624;50.042;8.436;2023-06-22T02:54:15;100445.00;;;22.39;100.00
32109;BME280;18624;50.042;8.436;2023-06-22T02:56:43;100432.56;;;22.29;100.00
32109;BME280;18624;50.042;8.436;2023-06-22T02:59:10;100450.56;;;22.45;100.00
32109;BME280;18624;50.042;8.436;2023-06-22T03:01:38;100428.50;;;22.30;100.00
32109;BME280;18624;50.042;8.436;2023-06-22T03:04:15;100461.47;;;22.37;100.00
32109;BME280;18624;50.042;8.436;2023-06-22T03:06:42;100446.28;;;22.21;100.00
32109;BME280;18624;50.042;8.436;2023-06-22T03:09:08;100482.81;;;22.57;100.00
32109;BME280;18624;50.042;8.436;2023-06-22T03:11:36;100445.00;;;22.28;100.00
32109;BME280;18624;50.042;8.436;2023-06-22T03:14:03;100451.59;;;22.36;100.00
32109;BME280;18624;50.042;8.436;2023-06-22T03:16:29;100482.28;;;22.59;100.00
32109;BME280;18624;50.042;8.436;2023-06-22T03:18:57;100442.97;;;22.23;100.00
32109;BME280;18624;50.042;8.436;2023-06-22T03:21:23;100453.38;;;22.28;100.00
32109;BME280;18624;50.042;8.436;2023-06-22T03:23:51;100481.28;;;22.39;100.00
32109;BME280;18624;50.042;8.436;2023-06-22T03:26:18;100435.81;;;22.11;100.00
32109;BME280;18624;50.042;8.436;2023-06-22T03:28:44;100427.72;;;21.96;100.00
32109;BME280;18624;50.042;8.436;2023-06-22T03:31:11;100444.72;;;22.15;100.00
32109;BME280;18624;50.042;8.436;2023-06-22T03:33:39;100432.03;;;22.08;100.00
32109;BME280;18624;50.042;8.436;2023-06-22T03:36:06;100463.78;;;22.39;100.00
32109;BME280;18624;50.042;8.436;2023-06-22T03:38:33;100462.00;;;22.36;100.00
32109;BME280;18624;50.042;8.436;2023-06-22T03:40:59;100408.19;;;22.07;100.00
32109;BME280;18624;50.042;8.436;2023-06-22T03:43:27;100439.41;;;22.11;100.00
32109;BME280;18624;50.042;8.436;2023-06-22T03:45:55;100376.22;;;21.86;100.00
32109;BME280;18624;50.042;8.436;2023-06-22T03:48:21;100409.94;;;22.10;100.00
32109;BME280;18624;50.042;8.436;2023-06-22T03:50:48;100471.38;;;22.44;100.00
32109;BME280;18624;50.042;8.436;2023-06-22T03:53:14;100399.06;;;21.90;100.00
32109;BME280;18624;50.042;8.436;2023-06-22T03:55:51;100455.16;;;22.31;100.00
32109;BME280;18624;50.042;8.436;2023-06-22T03:58:19;100469.59;;;22.41;100.00
32109;BME280;18624;50.042;8.436;2023-06-22T04:00:46;100477.75;;;22.39;100.00
32109;BME280;18624;50.042;8.436;2023-06-22T04:03:14;100479.78;;;22.38;100.00
32109;BME280;18624;50.042;8.436;2023-06-22T04:05:41;100481.03;;;22.43;100.00
32109;BME280;18624;50.042;8.436;2023-06-22T04:08:08;100423.16;;;21.98;100.00
32109;BME280;18624;50.042;8.436;2023-06-22T04:10:34;100462.50;;;22.17;100.00
32109;BME280;18624;50.042;8.436;2023-06-22T04:13:01;100452.34;;;22.14;100.00
32109;BME280;18624;50.042;8.436;2023-06-22T04:15:27;100472.41;;;22.30;100.00
32109;BME280;18624;50.042;8.436;2023-06-22T04:17:55;100422.38;;;21.92;100.00
32109;BME280;18624;50.042;8.436;2023-06-22T04:20:22;100434.31;;;22.10;100.00
32109;BME280;18624;50.042;8.436;2023-06-22T04:22:49;100446.00;;;22.08;100.00
32109;BME280;18624;50.042;8.436;2023-06-22T04:25:15;100460.72;;;22.14;100.00
32109;BME280;18624;50.042;8.436;2023-06-22T04:27:42;100456.16;;;22.17;100.00
32109;BME280;18624;50.042;8.436;2023-06-22T04:30:08;100459.66;;;22.06;100.00
32109;BME280;18624;50.042;8.436;2023-06-22T04:32:35;100502.09;;;22.21;100.00
32109;BME280;18624;50.042;8.436;2023-06-22T04:35:06;100445.97;;;21.86;100.00
32109;BME280;18624;50.042;8.436;2023-06-22T04:37:33;100451.78;;;21.77;100.00
32109;BME280;18624;50.042;8.436;2023-06-22T04:40:00;100420.06;;;21.63;100.00
32109;BME280;18624;50.042;8.436;2023-06-22T04:42:27;100507.16;;;22.23;100.00
32109;BME280;18624;50.042;8.436;2023-06-22T04:44:54;100500.06;;;22.22;100.00
32109;BME280;18624;50.042;8.436;2023-06-22T04:47:20;100499.06;;;22.25;100.00
32109;BME280;18624;50.042;8.436;2023-06-22T04:49:47;100500.59;;;22.20;100.00
32109;BME280;18624;50.042;8.436;2023-06-22T04:52:13;100501.84;;;22.14;100.00
32109;BME280;18624;50.042;8.436;2023-06-22T04:54:46;100494.97;;;22.15;100.00
32109;BME280;18624;50.042;8.436;2023-06-22T04:57:21;100414.50;;;21.57;100.00
32109;BME280;18624;50.042;8.436;2023-06-22T04:59:59;100497.75;;;22.04;100.00
32109;BME280;18624;50.042;8.436;2023-06-22T05:02:39;100476.41;;;21.95;100.00
32109;BME280;18624;50.042;8.436;2023-06-22T05:05:06;100447.72;;;21.72;100.00
32109;BME280;18624;50.042;8.436;2023-06-22T05:07:34;100489.13;;;22.07;100.00
32109;BME280;18624;50.042;8.436;2023-06-22T05:10:01;100484.84;;;22.12;100.00
32109;BME280;18624;50.042;8.436;2023-06-22T05:12:29;100493.44;;;22.08;100.00
32109;BME280;18624;50.042;8.436;2023-06-22T05:14:56;100434.03;;;21.68;100.00
32109;BME280;18624;50.042;8.436;2023-06-22T05:17:22;100463.47;;;21.92;100.00
32109;BME280;18624;50.042;8.436;2023-06-22T05:19:49;100480.72;;;22.02;100.00
32109;BME280;18624;50.042;8.436;2023-06-22T05:22:16;100484.34;;;22.13;100.00
32109;BME280;18624;50.042;8.436;2023-06-22T05:24:43;100479.72;;;22.05;100.00
32109;BME280;18624;50.042;8.436;2023-06-22T05:27:10;100421.06;;;21.65;100.00
32109;BME280;18624;50.042;8.436;2023-06-22T05:29:37;100453.81;;;21.93;100.00
32109;BME280;18624;50.042;8.436;2023-06-22T05:32:04;100442.91;;;21.78;100.00
32109;BME280;18624;50.042;8.436;2023-06-22T05:34:30;100471.09;;;21.97;100.00
32109;BME280;18624;50.042;8.436;2023-06-22T05:36:57;100466.53;;;21.99;100.00
32109;BME280;18624;50.042;8.436;2023-06-22T05:39:26;100410.44;;;21.58;100.00
32109;BME280;18624;50.042;8.436;2023-06-22T05:41:52;100473.38;;;22.04;100.00
32109;BME280;18624;50.042;8.436;2023-06-22T05:44:19;100422.09;;;21.79;100.00
32109;BME280;18624;50.042;8.436;2023-06-22T05:46:45;100334.28;;;21.18;100.00
32109;BME280;18624;50.042;8.436;2023-06-22T05:49:13;100412.22;;;21.72;100.00
32109;BME280;18624;50.042;8.436;2023-06-22T05:51:40;100383.03;;;21.57;100.00
32109;BME280;18624;50.042;8.436;2023-06-22T05:54:07;100446.47;;;22.01;100.00
32109;BME280;18624;50.042;8.436;2023-06-22T05:56:35;100413.75;;;21.85;100.00
32109;BME280;18624;50.042;8.436;2023-06-22T05:59:01;100445.72;;;21.95;100.00
32109;BME280;18624;50.042;8.436;2023-06-22T06:01:28;100381.78;;;21.63;100.00
32109;BME280;18624;50.042;8.436;2023-06-22T06:03:54;100446.53;;;22.12;100.00
32109;BME280;18624;50.042;8.436;2023-06-22T06:06:21;100469.09;;;22.31;100.00
32109;BME280;18624;50.042;8.436;2023-06-22T06:08:49;100418.84;;;22.09;100.00
32109;BME280;18624;50.042;8.436;2023-06-22T06:11:15;100417.84;;;22.12;100.00
32109;BME280;18624;50.042;8.436;2023-06-22T06:13:41;100400.06;;;22.09;100.00
32109;BME280;18624;50.042;8.436;2023-06-22T06:16:08;100356.41;;;21.84;100.00
32109;BME280;18624;50.042;8.436;2023-06-22T06:18:34;100430.25;;;22.33;100.00
32109;BME280;18624;50.042;8.436;2023-06-22T06:21:01;100454.84;;;22.63;100.00
32109;BME280;18624;50.042;8.436;2023-06-22T06:23:28;100431.00;;;22.56;100.00
32109;BME280;18624;50.042;8.436;2023-06-22T06:25:54;100458.91;;;22.67;100.00
32109;BME280;18624;50.042;8.436;2023-06-22T06:28:21;100456.59;;;22.77;100.00
32109;BME280;18624;50.042;8.436;2023-06-22T06:30:48;100353.13;;;22.19;100.00
32109;BME280;18624;50.042;8.436;2023-06-22T06:33:14;100453.53;;;22.97;100.00
32109;BME280;18624;50.042;8.436;2023-06-22T06:35:41;100460.13;;;23.06;100.00
32109;BME280;18624;50.042;8.436;2023-06-22T06:38:07;100418.50;;;22.80;100.00
32109;BME280;18624;50.042;8.436;2023-06-22T06:40:34;100382.50;;;22.59;100.00
32109;BME280;18624;50.042;8.436;2023-06-22T06:43:01;100454.44;;;23.22;100.00
32109;BME280;18624;50.042;8.436;2023-06-22T06:45:27;100404.78;;;22.93;100.00
32109;BME280;18624;50.042;8.436;2023-06-22T06:47:54;100439.19;;;23.23;100.00
32109;BME280;18624;50.042;8.436;2023-06-22T06:50:21;100436.63;;;23.31;100.00
32109;BME280;18624;50.042;8.436;2023-06-22T06:52:48;100438.38;;;23.34;100.00
32109;BME280;18624;50.042;8.436;2023-06-22T06:55:16;100397.84;;;23.11;100.00
32109;BME280;18624;50.042;8.436;2023-06-22T06:57:43;100422.94;;;23.22;100.00
32109;BME280;18624;50.042;8.436;2023-06-22T07:00:12;100436.00;;;23.49;100.00
32109;BME280;18624;50.042;8.436;2023-06-22T07:02:41;100424.59;;;23.47;100.00
32109;BME280;18624;50.042;8.436;2023-06-22T07:05:10;100388.59;;;23.33;100.00
32109;BME280;18624;50.042;8.436;2023-06-22T07:07:37;100384.81;;;23.24;100.00
32109;BME280;18624;50.042;8.436;2023-06-22T07:10:07;100335.34;;;23.03;100.00
32109;BME280;18624;50.042;8.436;2023-06-22T07:12:34;100382.38;;;23.51;99.03
32109;BME280;18624;50.042;8.436;2023-06-22T07:15:08;100354.72;;;23.36;99.53
32109;BME280;18624;50.042;8.436;2023-06-22T07:17:36;100429.97;;;23.87;100.00
32109;BME280;18624;50.042;8.436;2023-06-22T07:20:04;100424.81;;;23.96;99.29
32109;BME280;18624;50.042;8.436;2023-06-22T07:22:39;100400.91;;;23.90;99.55
32109;BME280;18624;50.042;8.436;2023-06-22T07:25:06;100435.56;;;24.17;96.75
32109;BME280;18624;50.042;8.436;2023-06-22T07:27:43;100394.19;;;24.04;95.21
32109;BME280;18624;50.042;8.436;2023-06-22T07:30:10;100324.72;;;23.72;94.42
32109;BME280;18624;50.042;8.436;2023-06-22T07:32:37;100435.59;;;24.47;96.43
32109;BME280;18624;50.042;8.436;2023-06-22T07:35:04;100372.78;;;24.31;93.69
32109;BME280;18624;50.042;8.436;2023-06-22T07:37:31;100411.88;;;24.72;92.24
32109;BME280;18624;50.042;8.436;2023-06-22T07:39:59;100404.63;;;24.83;90.04
32109;BME280;18624;50.042;8.436;2023-06-22T07:42:26;100361.16;;;24.52;90.23
32109;BME280;18624;50.042;8.436;2023-06-22T07:44:53;100356.72;;;24.62;89.45
32109;BME280;18624;50.042;8.436;2023-06-22T07:47:20;100339.22;;;24.56;90.99
32109;BME280;18624;50.042;8.436;2023-06-22T07:49:51;100391.78;;;25.12;86.50
32109;BME280;18624;50.042;8.436;2023-06-22T07:52:18;100406.06;;;25.14;87.13
32109;BME280;18624;50.042;8.436;2023-06-22T07:54:45;100359.41;;;24.92;87.28
32109;BME280;18624;50.042;8.436;2023-06-22T07:57:11;100385.34;;;25.17;86.45
32109;BME280;18624;50.042;8.436;2023-06-22T07:59:38;100370.66;;;25.11;85.19
32109;BME280;18624;50.042;8.436;2023-06-22T08:02:05;100398.94;;;25.32;86.15
32109;BME280;18624;50.042;8.436;2023-06-22T08:04:32;100367.19;;;25.23;86.64
32109;BME280;18624;50.042;8.436;2023-06-22T08:07:01;100408.00;;;25.57;85.31
32109;BME280;18624;50.042;8.436;2023-06-22T08:09:31;100396.28;;;25.58;84.11
32109;BME280;18624;50.042;8.436;2023-06-22T08:11:58;100400.63;;;25.72;81.32
32109;BME280;18624;50.042;8.436;2023-06-22T08:14:26;100350.22;;;25.48;82.94
32109;BME280;18624;50.042;8.436;2023-06-22T08:16:52;100344.41;;;25.46;82.82
32109;BME280;18624;50.042;8.436;2023-06-22T08:19:19;100346.97;;;25.44;82.20
32109;BME280;18624;50.042;8.436;2023-06-22T08:21:45;100338.50;;;25.49;84.64
32109;BME280;18624;50.042;8.436;2023-06-22T08:24:12;100324.56;;;25.57;85.86
32109;BME280;18624;50.042;8.436;2023-06-22T08:26:39;100371.69;;;25.96;82.90
32109;BME280;18624;50.042;8.436;2023-06-22T08:29:05;100338.06;;;25.78;83.37
32109;BME280;18624;50.042;8.436;2023-06-22T08:31:32;100334.72;;;25.79;80.56
32109;BME280;18624;50.042;8.436;2023-06-22T08:34:00;100330.84;;;25.82;82.62
32109;BME280;18624;50.042;8.436;2023-06-22T08:36:27;100316.25;;;25.84;81.53
32109;BME280;18624;50.042;8.436;2023-06-22T08:38:59;100335.94;;;25.97;81.35
32109;BME280;18624;50.042;8.436;2023-06-22T08:41:28;100328.03;;;25.82;81.71
32109;BME280;18624;50.042;8.436;2023-06-22T08:43:54;100321.50;;;25.74;81.53
32109;BME280;18624;50.042;8.436;2023-06-22T08:46:22;100215.28;;;25.00;81.06
32109;BME280;18624;50.042;8.436;2023-06-22T08:48:51;100350.41;;;26.01;82.17
32109;BME280;18624;50.042;8.436;2023-06-22T08:51:17;100298.66;;;25.83;79.83
32109;BME280;18624;50.042;8.436;2023-06-22T08:53:44;100338.34;;;26.19;83.38
32109;BME280;18624;50.042;8.436;2023-06-22T08:56:11;100288.00;;;26.08;81.42
32109;BME280;18624;50.042;8.436;2023-06-22T08:58:38;100329.38;;;26.61;76.99
32109;BME280;18624;50.042;8.436;2023-06-22T09:01:04;100342.69;;;26.73;78.44
32109;BME280;18624;50.042;8.436;2023-06-22T09:03:31;100302.47;;;26.65;79.26
32109;BME280;18624;50.042;8.436;2023-06-22T09:05:59;100293.84;;;26.63;77.76
32109;BME280;18624;50.042;8.436;2023-06-22T09:08:26;100296.09;;;26.65;77.10
32109;BME280;18624;50.042;8.436;2023-06-22T09:10:52;100326.13;;;26.83;74.46
32109;BME280;18624;50.042;8.436;2023-06-22T09:13:19;100329.78;;;26.91;77.56
32109;BME280;18624;50.042;8.436;2023-06-22T09:15:45;100341.53;;;27.03;73.96
32109;BME280;18624;50.042;8.436;2023-06-22T09:18:13;100279.97;;;26.65;76.25
32109;BME280;18624;50.042;8.436;2023-06-22T09:20:40;100326.19;;;27.04;79.12
32109;BME280;18624;50.042;8.436;2023-06-22T09:23:07;100296.03;;;26.91;76.24
32109;BME280;18624;50.042;8.436;2023-06-22T09:25:33;100257.88;;;26.83;77.21
32109;BME280;18624;50.042;8.436;2023-06-22T09:28:00;100309.22;;;27.31;73.49
32109;BME280;18624;50.042;8.436;2023-06-22T09:30:26;100294.47;;;27.17;74.13
32109;BME280;18624;50.042;8.436;2023-06-22T09:32:53;100271.31;;;27.11;74.66
32109;BME280;18624;50.042;8.436;2023-06-22T09:35:20;100261.16;;;27.08;71.62
32109;BME280;18624;50.042;8.436;2023-06-22T09:37:47;100228.22;;;26.95;71.35
32109;BME280;18624;50.042;8.436;2023-06-22T09:40:13;100248.38;;;27.20;71.00
32109;BME280;18624;50.042;8.436;2023-06-22T09:42:43;100237.72;;;27.26;71.76
32109;BME280;18624;50.042;8.436;2023-06-22T09:45:09;100297.56;;;27.68;70.84
32109;BME280;18624;50.042;8.436;2023-06-22T09:47:36;100263.16;;;27.62;65.94
32109;BME280;18624;50.042;8.436;2023-06-22T09:50:03;100237.91;;;27.49;65.54
32109;BME280;18624;50.042;8.436;2023-06-22T09:52:30;100242.47;;;27.31;65.97
32109;BME280;18624;50.042;8.436;2023-06-22T09:55:12;100293.88;;;27.52;68.90
32109;BME280;18624;50.042;8.436;2023-06-22T09:57:39;100256.44;;;27.23;67.08
32109;BME280;18624;50.042;8.436;2023-06-22T10:00:06;100293.66;;;27.50;69.55
32109;BME280;18624;50.042;8.436;2023-06-22T10:02:35;100233.41;;;27.25;67.77
32109;BME280;18624;50.042;8.436;2023-06-22T10:05:02;100249.75;;;27.47;67.22
32109;BME280;18624;50.042;8.436;2023-06-22T10:07:29;100267.03;;;27.72;66.06
32109;BME280;18624;50.042;8.436;2023-06-22T10:09:56;100252.59;;;27.76;64.94
32109;BME280;18624;50.042;8.436;2023-06-22T10:12:22;100197.81;;;27.56;63.81
32109;BME280;18624;50.042;8.436;2023-06-22T10:14:49;100223.53;;;27.81;65.53
32109;BME280;18624;50.042;8.436;2023-06-22T10:17:16;100134.94;;;27.25;66.91
32109;BME280;18624;50.042;8.436;2023-06-22T10:19:42;100223.28;;;28.00;64.76
32109;BME280;18624;50.042;8.436;2023-06-22T10:22:09;100245.75;;;28.21;62.67
32109;BME280;18624;50.042;8.436;2023-06-22T10:24:35;100235.06;;;28.27;62.56
32109;BME280;18624;50.042;8.436;2023-06-22T10:27:02;100201.00;;;28.17;62.20
32109;BME280;18624;50.042;8.436;2023-06-22T10:29:28;100225.41;;;28.43;62.31
32109;BME280;18624;50.042;8.436;2023-06-22T10:31:55;100208.88;;;28.47;59.77
32109;BME280;18624;50.042;8.436;2023-06-22T10:34:21;100216.41;;;28.52;61.11
32109;BME280;18624;50.042;8.436;2023-06-22T10:36:48;100198.75;;;28.52;61.95
32109;BME280;18624;50.042;8.436;2023-06-22T10:39:15;100185.97;;;28.51;60.38
32109;BME280;18624;50.042;8.436;2023-06-22T10:41:42;100186.56;;;28.65;61.57
32109;BME280;18624;50.042;8.436;2023-06-22T10:44:08;100133.31;;;28.46;59.40
32109;BME280;18624;50.042;8.436;2023-06-22T10:46:35;100163.28;;;28.80;58.93
32109;BME280;18624;50.042;8.436;2023-06-22T10:49:01;100170.47;;;28.96;57.26
32109;BME280;18624;50.042;8.436;2023-06-22T10:51:28;100128.84;;;28.81;56.86
32109;BME280;18624;50.042;8.436;2023-06-22T10:53:55;100162.41;;;29.00;56.32
32109;BME280;18624;50.042;8.436;2023-06-22T10:56:21;100110.44;;;28.72;58.26
32109;BME280;18624;50.042;8.436;2023-06-22T10:58:47;100087.88;;;28.72;57.06
32109;BME280;18624;50.042;8.436;2023-06-22T11:01:14;100123.84;;;29.10;57.23
32109;BME280;18624;50.042;8.436;2023-06-22T11:04:00;100127.59;;;29.28;56.79
32109;BME280;18624;50.042;8.436;2023-06-22T11:06:27;100117.03;;;29.21;54.84
32109;BME280;18624;50.042;8.436;2023-06-22T11:08:53;100105.75;;;29.13;55.23
32109;BME280;18624;50.042;8.436;2023-06-22T11:11:37;100120.81;;;29.23;55.22
32109;BME280;18624;50.042;8.436;2023-06-22T11:14:04;100090.53;;;29.01;55.01
32109;BME280;18624;50.042;8.436;2023-06-22T11:16:30;100087.91;;;29.03;53.50
32109;BME280;18624;50.042;8.436;2023-06-22T11:18:57;100102.19;;;29.13;54.57
32109;BME280;18624;50.042;8.436;2023-06-22T11:21:23;100115.91;;;29.24;54.63
32109;BME280;18624;50.042;8.436;2023-06-22T11:23:50;100120.44;;;29.27;54.36
32109;BME280;18624;50.042;8.436;2023-06-22T11:26:17;100123.59;;;29.39;56.37
32109;BME280;18624;50.042;8.436;2023-06-22T11:28:43;100108.00;;;29.38;55.83
32109;BME280;18624;50.042;8.436;2023-06-22T11:31:10;100122.28;;;29.47;54.23
32109;BME280;18624;50.042;8.436;2023-06-22T11:33:51;100099.72;;;29.32;55.06
32109;BME280;18624;50.042;8.436;2023-06-22T11:36:18;100078.66;;;29.18;54.61
32109;BME280;18624;50.042;8.436;2023-06-22T11:38:45;100067.38;;;29.18;54.08
32109;BME280;18624;50.042;8.436;2023-06-22T11:41:11;100044.25;;;29.12;56.11
32109;BME280;18624;50.042;8.436;2023-06-22T11:43:38;100106.84;;;29.48;55.84
32109;BME280;18624;50.042;8.436;2023-06-22T11:46:04;100081.09;;;29.21;57.92
32109;BME280;18624;50.042;8.436;2023-06-22T11:48:31;100113.22;;;29.49;58.63
32109;BME280;18624;50.042;8.436;2023-06-22T11:50:59;100111.34;;;29.51;57.63
32109;BME280;18624;50.042;8.436;2023-06-22T11:53:26;100105.13;;;29.53;58.23
32109;BME280;18624;50.042;8.436;2023-06-22T11:55:53;100079.34;;;29.49;57.78
32109;BME280;18624;50.042;8.436;2023-06-22T11:58:22;100066.19;;;29.51;56.51
32109;BME280;18624;50.042;8.436;2023-06-22T12:00:49;100086.88;;;29.62;57.15
32109;BME280;18624;50.042;8.436;2023-06-22T12:03:18;99985.41;;;28.93;57.17
32109;BME280;18624;50.042;8.436;2023-06-22T12:05:46;100069.75;;;29.52;56.11
32109;BME280;18624;50.042;8.436;2023-06-22T12:08:13;100078.19;;;29.67;55.74
32109;BME280;18624;50.042;8.436;2023-06-22T12:10:40;100059.00;;;29.58;56.77
32109;BME280;18624;50.042;8.436;2023-06-22T12:13:07;100069.53;;;29.65;56.77
32109;BME280;18624;50.042;8.436;2023-06-22T12:15:33;100066.72;;;29.65;56.85
32109;BME280;18624;50.042;8.436;2023-06-22T12:18:00;100057.13;;;29.61;55.63
32109;BME280;18624;50.042;8.436;2023-06-22T12:20:27;100058.41;;;29.67;54.68
32109;BME280;18624;50.042;8.436;2023-06-22T12:22:55;100036.25;;;29.64;56.89
32109;BME280;18624;50.042;8.436;2023-06-22T12:25:24;100073.03;;;29.89;55.81
32109;BME280;18624;50.042;8.436;2023-06-22T12:27:51;100071.88;;;29.92;54.94
32109;BME280;18624;50.042;8.436;2023-06-22T12:30:17;100044.84;;;29.73;55.75
32109;BME280;18624;50.042;8.436;2023-06-22T12:32:43;100058.16;;;29.88;57.52
32109;BME280;18624;50.042;8.436;2023-06-22T12:35:10;100051.59;;;29.86;56.23
32109;BME280;18624;50.042;8.436;2023-06-22T12:37:43;100066.00;;;29.97;55.98
32109;BME280;18624;50.042;8.436;2023-06-22T12:40:10;100059.44;;;29.95;56.34
32109;BME280;18624;50.042;8.436;2023-06-22T12:42:36;100049.44;;;29.94;57.08
32109;BME280;18624;50.042;8.436;2023-06-22T12:45:03;100038.81;;;29.77;56.68
32109;BME280;18624;50.042;8.436;2023-06-22T12:47:30;100058.53;;;29.85;57.73
32109;BME280;18624;50.042;8.436;2023-06-22T12:49:57;100036.56;;;29.75;58.55
32109;BME280;18624;50.042;8.436;2023-06-22T12:52:24;100049.31;;;29.84;58.52